Travis Air Force Base
KSUU : now visible

Airfield :











YOU CAN JOIN US ON...

 
LOGIN :

Register | Disclaimer

   EN    FR    IT 

 









Legend :    VFR   Marginal VFR   IFR   Intensive IFR   Very Intensive IFR
Visi :
Ceiling :
>= 8 km
>= 3000ft
5 to 8 km
1000 to 3000 ft
1500m to 5 km
500 to 1000 ft
800 to 1500m
200 to 500 ft
< 800m
< 200 ft
Symbols :   Thunderstorms  Fog  Heavy snow  Heavy precipitations  Wind > 20 kt







- Airport Elevation : 62 ft


KSUU - Travis Air Force Base

CURRENT METAR :
  • 210458Z AUTO 23006KT 10SM CLR 18/08 A2991 RMK AO2 SLP135 T01770080 $

EXPIRED METARs :
  • 210358Z AUTO 25007KT 10SM CLR 21/08 A2990 RMK AO2 SLP131 T02050075 $
  • 210258Z AUTO 26008KT 10SM CLR 23/07 A2989 RMK AO2 SLP128 T02320073 53001 $

TAF TAF KSUU
Valid from the 21 at 03:00 until the 22 at 09:00 UTC


210300Z 2103/2209 24009KT 9999 SKC QNH2989INS
BECMG 2114/2115 35012KT 9999 SKC QNH2984INS
BECMG 2201/2202 24009KT 9999 SKC QNH2985INS TX32/2123Z TN15/2112Z
No reported NOTAMs for that airfield.



MET'MAP, your aeronautical weather chart ! - Copyright ORBIFLY December 2007 - Disclaimer

ORBIFLY MET'MAP TEAM :

Programming & Development : Alexandra Zaïnal
Concept & Development : Baudouin d'Aumeries
Co-Development & Prog : Marc-Olivier Méhu
Technical & hardware support : Manuel Goepfert

Contact : metmap@orbifly.com




SOURCES & CREDITS :

   NOAA       Earth
Advisory